Weather at Fazenda Bagagem Airport

Public forecast

Using degrees Celsius for public forecast. Weather courtesy of forecast.io.

Closest aviation weather report (METAR) to Fazenda Bagagem Airport

Report is more than 6 hours old.

Closest report is Dr Augusto Roberto Fuster International Airport, 18.8 nm (34.9 km) NW. Retrieved 2020/09/21 09:00 UTC (4 days ago):

SGPJ 210900Z 14016KT 9999 BKN020 OVC070 12/11 Q1017

Closest aviation forecast (TAF) to Fazenda Bagagem Airport

Forecast is more than 6 hours old.

Closest forecast is Ponta PorĂ£ Airport, 19.1 nm (35.3 km) NNW. Retrieved 2020-09-25 00:12 UTC (6 hours ago):

TAF SBPP 242200Z 2500/2524 06004KT CAVOK TN19/2509Z TX36/2517Z BECMG 2513/2515 02010KT FEW025 BECMG 2520/2522 05005KT CAVOK RMK PGL